Time;durP1;ratioP1;P1;durP2;ratioP2;P2;SDS_P1;SDS_P2;PMS_P1;PMS_P2;Temp;Humidity;BMP_temperature;BMP_pressure;BME280_temperature;BME280_humidity;BME280_pressure;Samples;Min_cycle;Max_cycle;Signal;HPM_P1;HPM_P2
2021/11/22 00:00:35;;;;;;;5.60;5.00;;;;;;;8.04;79.46;100757.97;5039401;28;20087;-52
2021/11/22 00:03:02;;;;;;;5.68;4.45;;;;;;;8.03;78.72;100756.19;5037559;28;20060;-51
2021/11/22 00:05:27;;;;;;;7.47;5.03;;;;;;;8.01;78.86;100761.47;5025170;28;20072;-51
2021/11/22 00:07:54;;;;;;;5.50;3.88;;;;;;;7.98;79.35;100756.19;5033033;28;20083;-51
2021/11/22 00:10:19;;;;;;;4.30;3.63;;;;;;;8.03;79.26;100772.81;5027424;28;20083;-51
2021/11/22 00:12:44;;;;;;;6.47;5.10;;;;;;;8.02;78.81;100768.47;5021064;28;20112;-52
2021/11/22 00:15:13;;;;;;;6.20;4.22;;;;;;;8.02;79.34;100764.94;5033646;28;20053;-52
2021/11/22 00:17:39;;;;;;;5.68;3.75;;;;;;;7.99;79.26;100763.19;5032383;28;20038;-51
2021/11/22 00:20:08;;;;;;;6.50;4.47;;;;;;;8.01;79.18;100769.34;5046094;28;20147;-52
2021/11/22 00:22:34;;;;;;;6.18;3.83;;;;;;;8.00;78.97;100774.59;5032624;28;20022;-52
2021/11/22 00:25:00;;;;;;;5.55;4.38;;;;;;;8.01;79.05;100778.97;5033845;28;20100;-53
2021/11/22 00:27:25;;;;;;;5.30;4.03;;;;;;;7.99;79.76;100781.56;5020033;28;20022;-51
2021/11/22 00:29:50;;;;;;;6.68;4.25;;;;;;;8.00;79.55;100788.56;5030247;28;20044;-51
2021/11/22 00:32:16;;;;;;;6.43;3.40;;;;;;;7.99;79.14;100792.09;5022278;28;20037;-51
2021/11/22 00:34:55;;;;;;;5.95;3.92;;;;;;;7.99;79.57;100784.19;5033198;28;20036;-52
2021/11/22 00:37:23;;;;;;;4.90;4.18;;;;;;;7.99;79.43;100781.56;5029379;28;20064;-51
2021/11/22 00:39:48;;;;;;;5.28;3.97;;;;;;;7.99;79.27;100791.19;5043240;28;20029;-52
2021/11/22 00:42:14;;;;;;;5.90;3.88;;;;;;;7.99;79.18;100802.59;5032077;28;20540;-51
2021/11/22 00:44:40;;;;;;;5.88;4.43;;;;;;;7.97;79.24;100799.06;5031662;28;20030;-51
2021/11/22 00:47:06;;;;;;;4.93;3.72;;;;;;;7.97;79.35;100799.06;5032589;28;20034;-52
2021/11/22 00:49:32;;;;;;;5.47;3.83;;;;;;;7.97;79.11;100812.19;5029159;28;20467;-51
2021/11/22 00:51:58;;;;;;;5.47;3.90;;;;;;;7.96;78.92;100813.97;5044568;28;20025;-51
2021/11/22 00:54:23;;;;;;;5.28;3.60;;;;;;;7.96;79.66;100815.69;5033363;28;20478;-52
2021/11/22 00:56:48;;;;;;;7.38;3.90;;;;;;;7.95;79.19;100819.22;5032701;28;20037;-51
2021/11/22 00:59:14;;;;;;;5.38;4.03;;;;;;;7.95;79.41;100817.47;5018090;28;20546;-52
2021/11/22 01:01:39;;;;;;;5.90;3.83;;;;;;;7.96;79.41;100823.59;5013169;28;20060;-52
2021/11/22 01:04:05;;;;;;;5.93;4.32;;;;;;;7.95;79.44;100821.84;5024775;28;20018;-52
2021/11/22 01:06:30;;;;;;;4.65;3.67;;;;;;;7.94;79.61;100825.34;5026294;28;20045;-51
2021/11/22 01:08:56;;;;;;;7.15;3.60;;;;;;;7.95;79.17;100832.34;5044878;28;20112;-51
2021/11/22 01:11:21;;;;;;;6.45;3.53;;;;;;;7.93;79.46;100828.81;5052675;28;20364;-51
2021/11/22 01:13:46;;;;;;;5.88;4.07;;;;;;;7.93;79.46;100829.72;5031769;28;20037;-51
2021/11/22 01:16:12;;;;;;;8.30;3.92;;;;;;;7.94;79.48;100841.09;5031942;28;20030;-52
2021/11/22 01:18:37;;;;;;;6.35;3.63;;;;;;;7.93;79.55;100839.31;5038670;28;20068;-51
2021/11/22 01:21:03;;;;;;;5.20;3.75;;;;;;;7.94;79.94;100841.09;5035865;28;20037;-50
2021/11/22 01:23:28;;;;;;;6.45;3.78;;;;;;;7.93;79.39;100841.94;5030400;28;20072;-53
2021/11/22 01:25:53;;;;;;;3.78;3.47;;;;;;;7.92;79.02;100843.72;5031810;28;20480;-52
2021/11/22 01:28:19;;;;;;;5.43;3.60;;;;;;;7.91;79.84;100846.34;5031283;28;20030;-51
2021/11/22 01:30:44;;;;;;;6.70;3.65;;;;;;;7.91;78.97;100847.19;5031121;28;20025;-51
2021/11/22 01:33:13;;;;;;;5.22;3.63;;;;;;;7.93;79.32;100855.97;5029936;28;20025;-51
2021/11/22 01:35:41;;;;;;;4.40;3.97;;;;;;;7.92;79.44;100858.59;5014827;28;20504;-52
2021/11/22 01:38:07;;;;;;;5.88;3.80;;;;;;;7.91;79.51;100851.59;5037922;28;20029;-52
2021/11/22 01:40:32;;;;;;;7.07;4.10;;;;;;;7.92;79.51;100853.34;5015505;28;20022;-51
2021/11/22 01:42:58;;;;;;;5.28;3.67;;;;;;;7.90;79.58;100853.31;5019871;28;20085;-52
2021/11/22 01:45:24;;;;;;;4.57;3.80;;;;;;;7.90;79.37;100855.09;5017321;28;20041;-53
2021/11/22 01:47:49;;;;;;;8.73;4.22;;;;;;;7.90;79.43;100873.47;5015811;28;20079;-51
2021/11/22 01:50:17;;;;;;;6.78;3.67;;;;;;;7.89;79.66;100875.22;5027534;28;20032;-53
2021/11/22 01:52:43;;;;;;;4.50;3.38;;;;;;;7.89;79.07;100879.56;5017196;28;20029;-51
2021/11/22 01:55:11;;;;;;;4.85;3.38;;;;;;;7.90;79.09;100881.34;5025977;28;20021;-51
2021/11/22 01:57:36;;;;;;;4.88;3.90;;;;;;;7.88;78.90;100883.97;5030434;28;20120;-51
2021/11/22 02:03:28;;;;;;;4.30;3.75;;;;;;;7.88;80.04;100883.06;5007075;28;20415;-51
2021/11/22 02:05:54;;;;;;;4.53;3.30;;;;;;;7.86;79.19;100884.81;5029614;28;20026;-51
2021/11/22 02:08:20;;;;;;;7.40;4.30;;;;;;;7.88;79.61;100893.59;5013752;28;20018;-51
2021/11/22 02:10:47;;;;;;;5.05;3.47;;;;;;;7.86;79.42;100896.19;5018276;28;20040;-52
2021/11/22 02:13:13;;;;;;;6.47;4.25;;;;;;;7.87;79.56;100902.34;5031768;28;20041;-51
2021/11/22 02:15:39;;;;;;;5.72;3.80;;;;;;;7.86;79.21;100900.56;5018739;28;20028;-52
2021/11/22 02:18:04;;;;;;;6.15;3.97;;;;;;;7.86;79.23;100900.56;5017428;28;20072;-52
2021/11/22 02:20:31;;;;;;;4.60;3.80;;;;;;;7.87;79.28;100907.59;5021228;28;20455;-52
2021/11/22 02:23:02;;;;;;;4.43;3.92;;;;;;;7.86;79.73;100905.81;5016175;28;20080;-51
2021/11/22 02:25:30;;;;;;;4.45;3.85;;;;;;;7.85;79.01;100904.94;5025542;28;20041;-51
2021/11/22 02:27:56;;;;;;;5.90;3.88;;;;;;;7.85;79.66;100909.31;5023602;28;20047;-51
2021/11/22 02:30:30;;;;;;;4.53;4.13;;;;;;;7.85;79.67;100919.81;5011037;28;20025;-51
2021/11/22 02:33:07;;;;;;;6.35;4.75;;;;;;;7.85;79.73;100918.09;5017663;28;20080;-51
2021/11/22 02:35:35;;;;;;;5.32;4.20;;;;;;;7.83;79.44;100918.06;5013806;28;20014;-51
2021/11/22 02:38:00;;;;;;;6.20;4.60;;;;;;;7.82;79.58;100918.94;5008022;28;20106;-51
2021/11/22 02:40:26;;;;;;;5.43;4.50;;;;;;;7.82;79.40;100921.56;5017089;28;20156;-51
2021/11/22 02:42:52;;;;;;;6.45;4.35;;;;;;;7.83;79.45;100931.19;5020790;28;20036;-51
2021/11/22 02:45:19;;;;;;;6.15;4.65;;;;;;;7.85;79.94;100930.31;5027543;28;20022;-52
2021/11/22 02:47:46;;;;;;;7.25;5.28;;;;;;;7.82;79.17;100937.34;5027235;28;20040;-52
2021/11/22 02:50:12;;;;;;;6.65;4.82;;;;;;;7.82;79.74;100942.59;5031497;28;20133;-52
2021/11/22 02:52:39;;;;;;;6.25;4.50;;;;;;;7.81;79.51;100946.06;5017265;28;20060;-51
2021/11/22 02:55:07;;;;;;;6.10;4.47;;;;;;;7.82;80.04;100952.19;5021450;28;20018;-51
2021/11/22 02:57:32;;;;;;;6.15;5.50;;;;;;;7.81;79.59;100953.94;5023836;28;20030;-51
2021/11/22 02:59:59;;;;;;;6.97;5.72;;;;;;;7.80;79.98;100954.81;5021346;28;20551;-51
2021/11/22 03:02:25;;;;;;;6.80;5.32;;;;;;;7.79;79.35;100955.69;5030995;28;20030;-52
2021/11/22 03:04:52;;;;;;;6.53;5.00;;;;;;;7.80;79.54;100960.06;5026600;28;20022;-51
2021/11/22 03:07:19;;;;;;;7.60;5.47;;;;;;;7.79;79.73;100960.94;5020884;28;20519;-51
2021/11/22 03:09:44;;;;;;;9.38;5.85;;;;;;;7.79;79.57;100958.31;5019033;28;20030;-51
2021/11/22 03:12:12;;;;;;;8.80;5.65;;;;;;;7.80;79.76;100965.31;5010491;28;20041;-51
2021/11/22 03:14:41;;;;;;;7.90;5.72;;;;;;;7.78;79.47;100963.56;5029878;28;20039;-52
2021/11/22 03:17:07;;;;;;;7.35;6.10;;;;;;;7.79;79.76;100970.56;5030954;28;20079;-51
2021/11/22 03:19:32;;;;;;;11.35;6.38;;;;;;;7.77;79.66;100975.78;5023845;28;20029;-52
2021/11/22 03:22:01;;;;;;;6.68;5.97;;;;;;;7.78;80.31;100969.69;5034261;28;20609;-51
2021/11/22 03:24:27;;;;;;;8.40;5.53;;;;;;;7.77;79.74;100978.41;5029328;28;20056;-52
2021/11/22 03:26:53;;;;;;;7.47;5.88;;;;;;;7.77;79.60;100982.81;5029352;28;20460;-53
2021/11/22 03:29:18;;;;;;;6.45;5.80;;;;;;;7.77;79.37;100980.19;5030892;28;20052;-51
2021/11/22 03:31:45;;;;;;;7.13;5.93;;;;;;;7.77;79.16;100988.06;5019559;28;20030;-51
2021/11/22 03:34:12;;;;;;;7.10;5.90;;;;;;;7.74;79.91;100978.38;5018231;28;20034;-51
2021/11/22 03:36:39;;;;;;;7.22;6.20;;;;;;;7.74;79.29;100985.41;5012608;28;20033;-52
2021/11/22 03:39:11;;;;;;;8.20;6.90;;;;;;;7.75;79.88;100990.66;5018501;28;20021;-51
2021/11/22 03:41:36;;;;;;;10.68;6.93;;;;;;;7.75;79.46;100993.28;5016949;28;20091;-51
2021/11/22 03:44:10;;;;;;;6.53;5.85;;;;;;;7.76;79.75;101009.91;5019663;28;20419;-52
2021/11/22 03:46:39;;;;;;;8.75;6.30;;;;;;;7.76;80.11;101007.28;5019389;28;20056;-51
2021/11/22 03:49:04;;;;;;;9.07;6.57;;;;;;;7.77;79.68;101014.31;5047932;28;20037;-51
2021/11/22 03:51:30;;;;;;;7.57;6.20;;;;;;;7.75;79.75;101011.69;5021104;28;20030;-52
2021/11/22 03:53:55;;;;;;;6.40;5.80;;;;;;;7.73;79.25;101010.78;5023081;28;20029;-52
2021/11/22 03:56:21;;;;;;;7.50;6.40;;;;;;;7.74;79.46;101015.16;5032491;28;20021;-52
2021/11/22 03:58:46;;;;;;;7.72;6.47;;;;;;;7.73;79.63;101023.91;5033141;28;20033;-52
2021/11/22 04:01:11;;;;;;;9.00;5.80;;;;;;;7.70;79.82;101021.25;5031724;28;20033;-52
2021/11/22 04:03:37;;;;;;;6.80;5.93;;;;;;;7.74;79.64;101032.66;5017974;28;20042;-51
2021/11/22 04:06:02;;;;;;;8.20;6.28;;;;;;;7.72;79.04;101032.66;5031802;28;20029;-51
2021/11/22 04:08:28;;;;;;;9.35;6.95;;;;;;;7.71;80.13;101036.16;5032598;28;20160;-51
2021/11/22 04:10:53;;;;;;;7.88;6.85;;;;;;;7.69;79.25;101036.13;5022502;28;20030;-51
2021/11/22 04:13:18;;;;;;;6.63;5.35;;;;;;;7.72;79.39;101051.03;5024191;28;20522;-51
2021/11/22 04:15:44;;;;;;;7.60;6.00;;;;;;;7.71;79.63;101049.28;5032517;28;20509;-51
2021/11/22 04:18:09;;;;;;;11.30;7.97;;;;;;;7.70;78.99;101058.88;5033701;28;20495;-51
2021/11/22 04:20:36;;;;;;;7.55;6.15;;;;;;;7.70;79.28;101058.88;5031454;28;20029;-51
2021/11/22 04:23:03;;;;;;;5.63;4.53;;;;;;;7.69;79.91;101065.03;5021437;28;20029;-51
2021/11/22 04:25:28;;;;;;;6.95;6.03;;;;;;;7.68;79.62;101075.50;5019077;28;20030;-51
2021/11/22 04:27:54;;;;;;;7.53;6.05;;;;;;;7.69;79.02;101082.50;5028948;28;20069;-52
2021/11/22 04:30:19;;;;;;;6.65;5.93;;;;;;;7.63;78.88;101069.31;5031517;28;20471;-51
2021/11/22 04:32:44;;;;;;;6.75;5.32;;;;;;;7.70;79.35;101081.63;5026167;28;20037;-51
2021/11/22 04:35:12;;;;;;;7.53;5.03;;;;;;;7.69;79.55;101088.66;5014885;28;20029;-51
2021/11/22 04:37:38;;;;;;;6.53;5.80;;;;;;;7.69;79.97;101087.75;5035868;28;20088;-52
2021/11/22 04:40:08;;;;;;;6.72;4.97;;;;;;;7.67;80.17;101094.75;5031359;28;20033;-51
2021/11/22 04:42:33;;;;;;;8.00;5.68;;;;;;;7.69;79.26;101108.75;5021717;28;20029;-51
2021/11/22 04:44:59;;;;;;;6.25;5.25;;;;;;;7.68;79.64;101107.88;5017739;28;20025;-51
2021/11/22 04:47:25;;;;;;;6.35;4.88;;;;;;;7.67;79.67;101105.25;5037521;28;20025;-49
2021/11/22 04:49:52;;;;;;;7.20;4.70;;;;;;;7.66;80.06;101111.34;5021472;28;20022;-54
2021/11/22 04:52:19;;;;;;;6.32;4.50;;;;;;;7.67;79.42;101116.63;5017060;28;20033;-50
2021/11/22 04:54:45;;;;;;;5.07;4.32;;;;;;;7.66;79.77;101119.22;5021923;28;20022;-49
2021/11/22 04:57:10;;;;;;;5.75;5.03;;;;;;;7.66;79.78;101119.22;5028141;28;20606;-50
2021/11/22 04:59:36;;;;;;;5.15;4.50;;;;;;;7.66;79.59;101124.47;5034312;28;20104;-49
2021/11/22 05:02:04;;;;;;;5.18;4.47;;;;;;;7.66;79.47;101125.38;5031198;28;20021;-50
2021/11/22 05:04:29;;;;;;;5.57;4.55;;;;;;;7.64;79.70;101127.09;5015938;28;20447;-51
2021/11/22 05:06:54;;;;;;;5.55;4.18;;;;;;;7.64;79.51;101136.72;5023166;28;20055;-50
2021/11/22 05:09:20;;;;;;;4.43;3.95;;;;;;;7.66;80.04;101134.97;5027028;28;20022;-50
2021/11/22 05:11:47;;;;;;;6.18;4.20;;;;;;;7.64;79.63;101141.97;5024914;28;20523;-50
2021/11/22 05:14:12;;;;;;;5.43;4.57;;;;;;;7.63;79.32;101141.09;5025278;28;20083;-51
2021/11/22 05:16:38;;;;;;;5.97;4.72;;;;;;;7.61;78.95;101136.69;5023206;28;20037;-52
2021/11/22 05:19:03;;;;;;;4.95;4.45;;;;;;;7.63;79.41;101145.44;5023966;28;20018;-51
2021/11/22 05:21:31;;;;;;;4.38;3.95;;;;;;;7.64;80.17;101147.22;5047637;28;20029;-54
2021/11/22 05:24:01;;;;;;;6.70;4.90;;;;;;;7.63;79.89;101148.06;5019165;28;20099;-50
2021/11/22 05:26:26;;;;;;;5.93;4.25;;;;;;;7.62;79.40;101152.47;5026730;28;20041;-50
2021/11/22 05:28:52;;;;;;;5.38;4.10;;;;;;;7.64;79.58;101169.09;5031152;28;20025;-52
2021/11/22 05:31:17;;;;;;;5.18;4.30;;;;;;;7.64;79.51;101170.84;5012316;28;20036;-49
2021/11/22 05:33:42;;;;;;;5.47;4.10;;;;;;;7.63;79.84;101176.94;5018861;28;20029;-50
2021/11/22 05:36:08;;;;;;;5.80;3.95;;;;;;;7.61;79.55;101169.09;5018220;28;20025;-49
2021/11/22 05:38:33;;;;;;;3.95;3.50;;;;;;;7.61;79.39;101174.34;5022297;28;20026;-50
2021/11/22 05:40:58;;;;;;;4.07;3.50;;;;;;;7.61;79.48;101184.84;5012216;28;20084;-50
2021/11/22 05:43:24;;;;;;;4.85;3.95;;;;;;;7.61;79.89;101178.69;5014630;28;20447;-52
2021/11/22 05:45:52;;;;;;;4.03;3.42;;;;;;;7.60;79.92;101182.19;5029577;28;20426;-49
2021/11/22 05:48:19;;;;;;;3.58;3.28;;;;;;;7.61;79.56;101189.19;5030760;28;20036;-52
2021/11/22 05:50:53;;;;;;;4.00;3.60;;;;;;;7.59;80.01;101191.78;5033716;28;20496;-50
2021/11/22 05:53:19;;;;;;;3.67;3.33;;;;;;;7.60;80.08;101196.19;5019598;28;20064;-51
2021/11/22 05:55:45;;;;;;;3.30;3.00;;;;;;;7.56;79.47;101192.66;5017504;28;20053;-52
2021/11/22 05:58:13;;;;;;;5.65;3.35;;;;;;;7.52;79.13;101196.09;5022927;28;20487;-51
2021/11/22 06:00:39;;;;;;;3.05;2.75;;;;;;;7.60;79.75;101208.44;5042931;28;20033;-51
2021/11/22 06:03:05;;;;;;;3.90;3.45;;;;;;;7.57;79.65;101210.16;5031668;28;20033;-50
2021/11/22 06:05:30;;;;;;;3.40;3.10;;;;;;;7.60;79.66;101211.06;5025011;28;20452;-50
2021/11/22 06:07:55;;;;;;;3.53;3.22;;;;;;;7.58;79.42;101216.28;5027647;28;20026;-51
2021/11/22 06:10:21;;;;;;;3.60;3.30;;;;;;;7.57;79.60;101220.66;5027125;28;20025;-50
2021/11/22 06:12:46;;;;;;;3.90;3.60;;;;;;;7.57;79.38;101220.66;5029554;28;20083;-50
2021/11/22 06:15:11;;;;;;;4.22;3.60;;;;;;;7.57;79.61;101225.03;5015187;28;20025;-50
2021/11/22 06:17:37;;;;;;;3.58;3.28;;;;;;;7.57;79.85;101228.53;5018027;28;20036;-50
2021/11/22 06:20:06;;;;;;;3.78;3.15;;;;;;;7.56;79.88;101233.75;5031496;28;20057;-51
2021/11/22 06:22:31;;;;;;;3.70;3.33;;;;;;;7.56;79.62;101242.53;5030598;28;20066;-50
2021/11/22 06:24:56;;;;;;;3.90;3.40;;;;;;;7.57;79.66;101249.53;5020658;28;20483;-50
2021/11/22 06:27:24;;;;;;;3.28;3.03;;;;;;;7.56;79.45;101255.66;5044725;28;20033;-49
2021/11/22 06:29:51;;;;;;;3.75;2.97;;;;;;;7.55;79.62;101256.53;5028501;28;20377;-50
2021/11/22 06:32:16;;;;;;;4.68;3.28;;;;;;;7.55;79.21;101263.50;5028657;28;20033;-50
2021/11/22 06:34:41;;;;;;;4.72;3.72;;;;;;;7.55;79.81;101264.41;5030417;28;20021;-50
2021/11/22 06:37:08;;;;;;;3.85;3.45;;;;;;;7.55;79.78;101269.66;5034740;28;20025;-51
2021/11/22 06:39:33;;;;;;;3.63;3.05;;;;;;;7.56;79.44;101270.50;5034326;28;20017;-51
2021/11/22 06:41:59;;;;;;;3.30;2.90;;;;;;;7.54;79.61;101283.59;5027410;28;20028;-52
2021/11/22 06:44:24;;;;;;;3.63;3.33;;;;;;;7.54;79.35;101275.72;5031146;28;21733;-50
2021/11/22 06:46:50;;;;;;;3.22;2.95;;;;;;;7.54;79.61;101286.22;5035403;28;20060;-50
2021/11/22 06:49:16;;;;;;;3.45;3.15;;;;;;;7.54;79.38;101288.84;5027760;28;20021;-51
2021/11/22 06:51:42;;;;;;;3.40;3.10;;;;;;;7.54;79.52;101294.09;5026821;28;20033;-50
2021/11/22 06:54:08;;;;;;;3.47;2.90;;;;;;;7.51;79.06;101285.31;5029489;28;20022;-48
2021/11/22 06:56:33;;;;;;;4.43;2.78;;;;;;;7.53;79.20;101297.59;5024507;28;20101;-48
2021/11/22 06:58:58;;;;;;;2.92;2.63;;;;;;;7.52;79.31;101316.84;5032470;28;20116;-49
2021/11/22 07:01:24;;;;;;;3.25;2.83;;;;;;;7.52;79.43;101311.59;5026267;28;20040;-48
2021/11/22 07:03:49;;;;;;;3.03;2.70;;;;;;;7.53;79.47;101317.72;5023325;28;20017;-48
2021/11/22 07:06:14;;;;;;;4.43;2.78;;;;;;;7.50;79.45;101318.56;5025830;28;20033;-49
2021/11/22 07:08:40;;;;;;;3.08;2.80;;;;;;;7.51;79.46;101325.59;5032754;28;20408;-48
2021/11/22 07:11:05;;;;;;;3.75;3.13;;;;;;;7.50;79.51;101326.44;5025441;28;20430;-50
2021/11/22 07:13:32;;;;;;;2.95;2.60;;;;;;;7.51;79.55;101325.59;5033939;28;20387;-50
2021/11/22 07:15:58;;;;;;;3.45;3.15;;;;;;;7.51;79.52;101327.31;5033698;28;20027;-51
2021/11/22 07:18:23;;;;;;;2.88;2.67;;;;;;;7.50;78.96;101338.69;5034210;28;20120;-49
2021/11/22 07:20:49;;;;;;;2.92;2.72;;;;;;;7.50;79.54;101343.94;5034108;28;20045;-49
2021/11/22 07:23:15;;;;;;;2.45;2.25;;;;;;;7.49;79.92;101352.66;5023479;28;20021;-49
2021/11/22 07:25:42;;;;;;;3.08;2.70;;;;;;;7.50;79.86;101352.69;5024791;28;20026;-51
2021/11/22 07:28:07;;;;;;;3.03;2.80;;;;;;;7.48;79.49;101351.78;5017912;28;20030;-49
2021/11/22 07:30:33;;;;;;;2.75;2.55;;;;;;;7.50;79.55;101365.81;5032799;28;20087;-48
2021/11/22 07:32:58;;;;;;;3.42;2.63;;;;;;;7.49;79.14;101368.41;5019800;28;20698;-49
2021/11/22 07:35:25;;;;;;;2.83;2.45;;;;;;;7.48;79.49;101367.53;5015020;28;20112;-51
2021/11/22 07:37:50;;;;;;;2.92;2.60;;;;;;;7.48;79.89;101372.78;5022533;28;20028;-49
2021/11/22 07:40:20;;;;;;;3.55;2.65;;;;;;;7.48;78.85;101379.78;5034717;28;20040;-50
2021/11/22 07:42:46;;;;;;;2.87;2.53;;;;;;;7.47;79.68;101373.63;5033527;28;20514;-50
2021/11/22 07:45:11;;;;;;;2.88;2.60;;;;;;;7.48;79.47;101383.28;5032233;28;20108;-50
2021/11/22 07:47:37;;;;;;;3.08;2.88;;;;;;;7.47;79.21;101386.75;5032870;28;20056;-49
2021/11/22 07:50:03;;;;;;;3.38;2.60;;;;;;;7.49;79.20;101399.91;5034336;28;20021;-49
2021/11/22 07:52:29;;;;;;;3.72;2.42;;;;;;;7.47;79.08;101396.41;5034129;28;20029;-49
2021/11/22 07:54:54;;;;;;;2.60;2.40;;;;;;;7.47;79.49;101413.00;5034027;28;20498;-50
2021/11/22 07:57:19;;;;;;;2.80;2.60;;;;;;;7.46;79.80;101421.75;5033420;28;20021;-51
2021/11/22 07:59:46;;;;;;;2.70;2.50;;;;;;;7.47;79.99;101417.38;5033613;28;20439;-49
2021/11/22 08:02:12;;;;;;;2.72;2.53;;;;;;;7.47;79.55;101423.50;5033841;28;20411;-50
2021/11/22 08:04:39;;;;;;;2.90;2.30;;;;;;;7.46;79.61;101427.00;5034358;28;20076;-48
2021/11/22 08:07:13;;;;;;;3.58;2.58;;;;;;;7.46;79.75;101432.25;5043938;28;20383;-50
2021/11/22 08:09:44;;;;;;;2.63;2.42;;;;;;;7.45;79.88;101435.72;5047444;28;20030;-49
2021/11/22 08:12:26;;;;;;;2.53;2.30;;;;;;;7.47;79.37;101439.25;5033159;28;20491;-49
2021/11/22 08:14:52;;;;;;;2.60;2.40;;;;;;;7.45;79.28;101443.59;5033567;28;20033;-51
2021/11/22 08:17:17;;;;;;;2.30;2.10;;;;;;;7.44;79.39;101444.47;5033689;28;20026;-50
2021/11/22 08:19:42;;;;;;;2.50;2.28;;;;;;;7.40;79.54;101453.16;5033904;28;20026;-49
2021/11/22 08:22:09;;;;;;;2.40;2.20;;;;;;;7.41;79.72;101455.78;5033804;28;20386;-48
2021/11/22 08:24:35;;;;;;;5.38;2.30;;;;;;;7.45;79.59;101467.22;5032822;28;20030;-49
2021/11/22 08:27:00;;;;;;;2.60;2.38;;;;;;;7.43;79.42;101479.44;5033601;28;20070;-48
2021/11/22 08:29:25;;;;;;;2.85;2.50;;;;;;;7.44;79.49;101489.09;5029676;28;20022;-51
2021/11/22 08:31:51;;;;;;;2.60;2.40;;;;;;;7.43;78.78;101487.31;5029633;28;20028;-49
2021/11/22 08:34:16;;;;;;;2.35;2.25;;;;;;;7.42;79.88;101494.31;5033158;28;20091;-50
2021/11/22 08:36:44;;;;;;;2.60;2.40;;;;;;;7.43;79.37;101495.19;5033555;28;20025;-50
2021/11/22 08:39:10;;;;;;;2.92;2.20;;;;;;;7.43;79.08;101500.44;5032899;28;20087;-50
2021/11/22 08:41:35;;;;;;;2.33;2.13;;;;;;;7.42;79.54;101503.91;5016501;28;20030;-50
2021/11/22 08:44:01;;;;;;;1.90;1.77;;;;;;;7.40;79.02;101500.41;5041051;28;20030;-50
2021/11/22 08:46:26;;;;;;;2.47;2.28;;;;;;;7.42;79.27;101514.41;5031814;28;20033;-50
2021/11/22 08:48:51;;;;;;;2.17;1.98;;;;;;;7.41;79.56;101513.53;5032858;28;20025;-49
2021/11/22 08:51:17;;;;;;;2.42;2.20;;;;;;;7.40;79.20;101510.91;5032528;28;20032;-50
2021/11/22 08:53:42;;;;;;;2.15;1.98;;;;;;;7.40;79.48;101521.41;5031466;28;20025;-52
2021/11/22 08:56:11;;;;;;;2.13;1.92;;;;;;;7.41;79.83;101524.03;5033207;28;20100;-50
2021/11/22 08:58:37;;;;;;;2.13;1.98;;;;;;;7.44;79.04;101536.34;5032995;28;20483;-51
2021/11/22 09:01:02;;;;;;;2.10;1.90;;;;;;;7.40;78.93;101526.66;5031328;28;20040;-50
2021/11/22 09:03:27;;;;;;;2.00;1.90;;;;;;;7.43;79.26;101537.19;5032414;28;20042;-50
2021/11/22 09:05:53;;;;;;;2.28;2.15;;;;;;;7.45;79.53;101548.59;5032549;28;20021;-51
2021/11/22 09:08:18;;;;;;;3.10;2.30;;;;;;;7.45;79.48;101551.22;5032560;28;20049;-51
2021/11/22 09:10:45;;;;;;;2.33;2.13;;;;;;;7.46;80.01;101545.13;5031807;28;20050;-51
2021/11/22 09:13:10;;;;;;;2.17;1.98;;;;;;;7.46;79.76;101550.38;5031459;28;20036;-50
2021/11/22 09:15:37;;;;;;;2.28;2.05;;;;;;;7.44;80.29;101554.72;5031958;28;20112;-50
2021/11/22 09:18:02;;;;;;;2.13;2.03;;;;;;;7.42;79.65;101556.41;5047017;28;20111;-51
2021/11/22 09:20:29;;;;;;;1.80;1.70;;;;;;;7.45;79.94;101561.72;5037717;28;20124;-51
2021/11/22 09:22:57;;;;;;;4.00;2.05;;;;;;;7.46;80.07;101562.63;5030947;28;20079;-51
2021/11/22 09:25:23;;;;;;;2.38;1.98;;;;;;;7.46;79.88;101567.88;5020987;28;20030;-51
2021/11/22 09:27:50;;;;;;;2.20;2.00;;;;;;;7.46;79.82;101565.25;5012758;28;20029;-50
2021/11/22 09:30:16;;;;;;;2.15;1.95;;;;;;;7.46;79.88;101568.75;5031461;28;20029;-50
2021/11/22 09:32:41;;;;;;;2.75;1.88;;;;;;;7.41;79.50;101563.41;5032567;28;20380;-50
2021/11/22 09:35:08;;;;;;;1.98;1.73;;;;;;;7.44;79.81;101566.09;5029967;28;20022;-52
2021/11/22 09:37:34;;;;;;;2.00;1.80;;;;;;;7.42;79.55;101575.69;5028377;28;20036;-49
2021/11/22 09:39:59;;;;;;;2.25;2.08;;;;;;;7.42;79.10;101580.94;5016391;28;20024;-50
2021/11/22 09:42:25;;;;;;;1.63;1.52;;;;;;;7.45;79.28;101582.72;5012188;28;20096;-50
2021/11/22 09:44:50;;;;;;;1.80;1.70;;;;;;;7.44;78.71;101580.97;5022641;28;20030;-50
2021/11/22 09:47:15;;;;;;;2.13;1.63;;;;;;;7.44;78.38;101583.59;5032391;28;20025;-50
2021/11/22 09:49:40;;;;;;;1.80;1.70;;;;;;;7.47;78.70;101581.00;5031258;28;20028;-51
2021/11/22 09:52:06;;;;;;;1.60;1.50;;;;;;;7.47;78.42;101591.50;5026996;28;20033;-49
2021/11/22 09:54:31;;;;;;;1.63;1.50;;;;;;;7.50;78.87;101590.69;5031943;28;20021;-50
2021/11/22 09:56:57;;;;;;;2.38;1.58;;;;;;;7.48;79.22;101590.66;5032048;28;20056;-52
2021/11/22 09:59:23;;;;;;;1.50;1.40;;;;;;;7.50;78.51;101588.94;5031834;28;20056;-50
2021/11/22 10:01:54;;;;;;;1.77;1.67;;;;;;;7.52;79.21;101603.00;5030598;28;20057;-51
2021/11/22 10:04:19;;;;;;;;;;;;;;;7.51;78.39;101595.97;5031696;28;20033;-54
2021/11/22 10:07:16;;;;;;;2.00;1.53;;;;;;;7.50;79.94;101590.69;5021705;28;19944;-53
2021/11/22 10:09:45;;;;;;;1.67;1.58;;;;;;;7.50;79.33;101596.81;5024894;28;20422;-51
2021/11/22 10:12:29;;;;;;;2.95;1.48;;;;;;;7.52;79.39;101596.84;5031653;28;20033;-50
2021/11/22 10:14:56;;;;;;;1.40;1.30;;;;;;;7.51;79.51;101593.34;5031685;28;20045;-50
2021/11/22 10:17:25;;;;;;;1.80;1.65;;;;;;;7.51;79.35;101597.72;5032343;28;20481;-51
2021/11/22 10:20:06;;;;;;;1.77;1.63;;;;;;;7.50;80.08;101602.06;5029157;28;20033;-50
2021/11/22 10:22:56;;;;;;;1.60;1.50;;;;;;;7.53;80.07;101594.25;5014542;28;20030;-50
2021/11/22 10:25:24;;;;;;;1.88;1.70;;;;;;;7.53;79.59;101599.50;5028624;28;20395;-50
2021/11/22 10:27:50;;;;;;;2.60;1.52;;;;;;;7.52;79.47;101599.47;5034314;28;20033;-49
2021/11/22 10:30:30;;;;;;;1.75;1.65;;;;;;;7.53;79.71;101603.84;5034659;28;20044;-50
2021/11/22 10:32:57;;;;;;;1.65;1.55;;;;;;;7.53;79.23;101604.75;5035590;28;20060;-49
2021/11/22 10:35:27;;;;;;;1.73;1.58;;;;;;;7.54;79.32;101605.66;5021434;28;20021;-50
2021/11/22 10:37:57;;;;;;;2.08;1.88;;;;;;;7.55;79.56;101607.41;5024054;28;20029;-50
2021/11/22 10:40:22;;;;;;;1.60;1.50;;;;;;;7.54;79.93;101609.13;5035607;28;20030;-50
2021/11/22 10:42:48;;;;;;;1.60;1.40;;;;;;;7.53;80.06;101603.84;5035436;28;20021;-50
2021/11/22 10:45:32;;;;;;;1.70;1.40;;;;;;;7.53;80.50;101607.38;5035287;28;20048;-51
2021/11/22 10:48:19;;;;;;;1.55;1.45;;;;;;;7.55;80.56;101608.31;5036055;28;20025;-50
2021/11/22 10:50:50;;;;;;;1.60;1.50;;;;;;;7.55;80.08;101608.31;5035128;28;20026;-52
2021/11/22 10:53:36;;;;;;;1.60;1.50;;;;;;;7.56;79.90;101604.81;5034164;28;20030;-50
2021/11/22 10:59:58;;;;;;;1.60;1.50;;;;;;;7.55;80.41;101616.19;5035834;28;20045;-50
2021/11/22 11:02:39;;;;;;;1.55;1.45;;;;;;;7.55;80.44;101608.31;5044383;28;20092;-52
2021/11/22 11:05:05;;;;;;;1.40;1.30;;;;;;;7.57;79.81;101611.81;5020733;28;20384;-50
2021/11/22 11:07:30;;;;;;;1.33;1.27;;;;;;;7.58;79.66;101616.22;5034986;28;20021;-52
2021/11/22 11:09:58;;;;;;;1.35;1.25;;;;;;;7.58;80.02;101616.22;5035045;28;20045;-51
2021/11/22 11:12:24;;;;;;;1.42;1.33;;;;;;;7.58;80.35;101624.09;5034556;28;20083;-50
2021/11/22 11:15:13;;;;;;;1.63;1.10;;;;;;;7.60;80.40;101629.38;5034516;28;20025;-50
2021/11/22 11:17:39;;;;;;;1.50;1.40;;;;;;;7.60;79.84;101626.75;5034763;28;20087;-49
2021/11/22 11:20:13;;;;;;;1.30;1.20;;;;;;;7.60;79.96;101625.88;5033485;28;20030;-50
2021/11/22 11:22:40;;;;;;;1.50;1.40;;;;;;;7.60;80.08;101633.75;5033287;28;20116;-50
2021/11/22 11:25:06;;;;;;;1.40;1.30;;;;;;;7.62;79.68;101626.78;5034730;28;20040;-51
2021/11/22 11:27:34;;;;;;;1.77;1.13;;;;;;;7.60;79.63;101633.75;5034668;28;20060;-51
2021/11/22 11:30:01;;;;;;;1.48;1.30;;;;;;;7.58;79.86;101634.59;5028082;28;20026;-50
2021/11/22 11:32:28;;;;;;;1.33;1.20;;;;;;;7.60;79.43;101644.25;5020898;28;20033;-51
2021/11/22 11:34:55;;;;;;;1.30;1.20;;;;;;;7.60;79.33;101649.50;5034050;28;20021;-50
2021/11/22 11:37:59;;;;;;;1.13;1.13;;;;;;;7.60;79.65;101649.50;5033360;28;20452;-51
2021/11/22 11:40:57;;;;;;;1.33;1.17;;;;;;;7.61;79.80;101638.13;5020248;28;20076;-50